Time;durP1;ratioP1;P1;durP2;ratioP2;P2;SDS_P1;SDS_P2;PMS_P1;PMS_P2;Temp;Humidity;BMP_temperature;BMP_pressure;BME280_temperature;BME280_humidity;BME280_pressure;Samples;Min_cycle;Max_cycle;Signal;HPM_P1;HPM_P2
2020/12/25 00:01:25;;;;;;;150.23;36.70;;;;;;;2.48;94.54;100205.09;5033203;28;20057;-66
2020/12/25 00:03:50;;;;;;;130.52;37.13;;;;;;;2.49;94.84;100212.78;5032987;28;20044;-65
2020/12/25 00:06:16;;;;;;;210.82;40.22;;;;;;;2.68;94.72;100236.00;5033216;28;20029;-66
2020/12/25 00:08:41;;;;;;;185.13;43.13;;;;;;;2.41;95.49;100201.16;5033406;28;20033;-66
2020/12/25 00:11:07;;;;;;;151.43;38.70;;;;;;;2.64;95.66;100238.84;5033140;28;20499;-66
2020/12/25 00:13:32;;;;;;;116.95;34.60;;;;;;;2.77;94.66;100230.38;5031905;28;20029;-67
2020/12/25 00:15:58;;;;;;;151.27;34.15;;;;;;;2.64;93.58;100208.63;5031449;28;20060;-66
2020/12/25 00:18:24;;;;;;;116.32;34.60;;;;;;;2.75;94.58;100239.13;5031187;28;20022;-66
2020/12/25 00:20:50;;;;;;;119.35;29.02;;;;;;;2.83;94.47;100249.91;5031320;28;20032;-68
2020/12/25 00:23:16;;;;;;;89.00;27.13;;;;;;;2.88;94.12;100249.72;5030393;28;20040;-66
2020/12/25 00:25:42;;;;;;;201.63;37.33;;;;;;;2.72;93.53;100218.56;5031175;28;20026;-66
2020/12/25 00:28:07;;;;;;;164.90;35.50;;;;;;;2.59;93.04;100203.66;5030156;28;20033;-65
2020/12/25 00:30:33;;;;;;;55.53;25.50;;;;;;;2.58;92.60;100212.34;5033020;28;20476;-65
2020/12/25 00:32:58;;;;;;;60.28;19.30;;;;;;;2.62;93.60;100249.25;5033219;28;20091;-66
2020/12/25 00:35:24;;;;;;;82.05;20.20;;;;;;;2.33;93.92;100217.06;5032184;28;20116;-66
2020/12/25 00:37:49;;;;;;;56.45;19.70;;;;;;;2.45;94.45;100252.66;5032270;28;20029;-67
2020/12/25 00:40:15;;;;;;;55.40;21.67;;;;;;;2.36;94.91;100238.44;5032180;28;20378;-66
2020/12/25 00:42:40;;;;;;;36.38;17.40;;;;;;;2.27;95.34;100207.84;5032231;28;20025;-66
2020/12/25 00:45:05;;;;;;;41.00;16.35;;;;;;;2.45;94.57;100231.13;5032138;28;20021;-67
2020/12/25 00:47:31;;;;;;;36.15;16.63;;;;;;;2.04;95.07;100208.09;5031824;28;20469;-67
2020/12/25 00:49:56;;;;;;;47.80;18.10;;;;;;;1.93;96.21;100205.19;5032009;28;20025;-68
2020/12/25 00:52:24;;;;;;;45.90;18.02;;;;;;;2.13;96.51;100252.44;5031864;28;20029;-66
2020/12/25 00:54:52;;;;;;;48.08;19.40;;;;;;;2.06;97.34;100219.22;5031926;28;20032;-66
2020/12/25 00:57:18;;;;;;;80.88;19.17;;;;;;;1.76;97.04;100187.88;5032050;28;20037;-66
2020/12/25 00:59:44;;;;;;;49.28;17.95;;;;;;;1.95;97.71;100224.03;5032243;28;20030;-66
2020/12/25 01:02:10;;;;;;;76.55;18.52;;;;;;;2.04;98.33;100234.78;5031830;28;20404;-66
2020/12/25 01:04:36;;;;;;;44.70;20.02;;;;;;;1.82;98.61;100205.66;5014393;28;20032;-66
2020/12/25 01:07:06;;;;;;;88.55;21.58;;;;;;;2.06;99.22;100226.97;5032567;28;20029;-66
2020/12/25 01:09:32;;;;;;;109.85;24.88;;;;;;;2.08;99.13;100238.88;5030677;28;20029;-67
2020/12/25 01:11:59;;;;;;;91.40;23.13;;;;;;;2.02;99.36;100233.16;5031981;28;20040;-66
2020/12/25 01:14:27;;;;;;;96.90;25.20;;;;;;;2.11;99.52;100206.88;5032011;28;20035;-66
2020/12/25 01:16:54;;;;;;;100.80;23.88;;;;;;;2.17;99.77;100213.53;5030751;28;20036;-67
2020/12/25 01:19:21;;;;;;;91.88;29.13;;;;;;;2.17;100.00;100216.94;5030911;28;20022;-65
2020/12/25 01:21:47;;;;;;;107.15;26.38;;;;;;;2.08;100.00;100196.69;5030776;28;20390;-65
2020/12/25 01:24:12;;;;;;;110.13;27.75;;;;;;;2.29;100.00;100206.00;5031939;28;20037;-65
2020/12/25 01:26:37;;;;;;;212.18;33.35;;;;;;;2.31;100.00;100186.06;5031868;28;20032;-66
2020/12/25 01:29:03;;;;;;;221.50;33.20;;;;;;;2.45;100.00;100195.75;5031904;28;20030;-66
2020/12/25 01:31:30;;;;;;;181.65;30.65;;;;;;;2.47;99.99;100190.50;5030414;28;20038;-66
2020/12/25 01:33:55;;;;;;;211.77;33.72;;;;;;;2.34;100.00;100154.88;5032030;28;20112;-66
2020/12/25 01:36:21;;;;;;;399.05;40.25;;;;;;;2.71;99.91;100185.84;5031958;28;20121;-66
2020/12/25 01:38:47;;;;;;;142.23;25.98;;;;;;;2.95;99.23;100210.47;5032053;28;20049;-65
2020/12/25 01:41:12;;;;;;;187.45;28.63;;;;;;;2.89;98.77;100176.31;5032109;28;20061;-65
2020/12/25 01:43:37;;;;;;;144.95;26.55;;;;;;;3.08;98.28;100200.34;5032330;28;20034;-66
2020/12/25 01:46:03;;;;;;;208.68;25.70;;;;;;;3.13;98.22;100197.50;5032296;28;20037;-66
2020/12/25 01:48:29;;;;;;;177.82;27.10;;;;;;;3.01;98.69;100173.94;5031993;28;20077;-65
2020/12/25 01:50:54;;;;;;;123.60;24.83;;;;;;;3.23;97.86;100199.50;5031994;28;20029;-65
2020/12/25 01:53:21;;;;;;;105.20;24.45;;;;;;;3.26;98.32;100208.88;5032042;28;20061;-65
2020/12/25 01:55:48;;;;;;;171.48;25.38;;;;;;;3.43;96.69;100201.06;5031978;28;20026;-65
2020/12/25 01:58:13;;;;;;;148.20;22.10;;;;;;;3.48;96.63;100193.88;5030622;28;20089;-66
2020/12/25 02:00:40;;;;;;;82.03;22.05;;;;;;;3.50;96.03;100194.63;5032688;28;20025;-66
2020/12/25 02:03:05;;;;;;;123.78;24.20;;;;;;;3.29;96.62;100165.53;5030432;28;20029;-65
2020/12/25 02:05:31;;;;;;;217.10;29.08;;;;;;;3.51;95.44;100191.13;5032042;28;20503;-65
2020/12/25 02:07:56;;;;;;;104.18;20.75;;;;;;;3.60;95.34;100192.38;5031631;28;20025;-65
2020/12/25 02:10:23;;;;;;;116.18;20.80;;;;;;;3.60;94.91;100186.38;5032142;28;20034;-66
2020/12/25 02:12:49;;;;;;;94.57;19.48;;;;;;;3.55;93.98;100178.84;5031661;28;20021;-66
2020/12/25 02:15:15;;;;;;;123.35;21.13;;;;;;;3.61;94.50;100199.25;5031793;28;20034;-66
2020/12/25 02:17:44;;;;;;;246.20;27.48;;;;;;;3.67;94.27;100188.53;5034415;28;20056;-66
2020/12/25 02:20:10;;;;;;;148.68;26.13;;;;;;;3.15;93.59;100156.81;5035631;28;20029;-65
2020/12/25 02:22:36;;;;;;;220.98;30.25;;;;;;;3.06;94.37;100171.09;5035354;28;20055;-66
2020/12/25 02:25:01;;;;;;;132.80;24.30;;;;;;;3.02;94.67;100160.06;5035306;28;20037;-66
2020/12/25 02:27:26;;;;;;;107.85;23.55;;;;;;;3.16;95.58;100181.78;5035280;28;20485;-66
2020/12/25 02:29:53;;;;;;;121.85;28.73;;;;;;;2.87;96.83;100155.69;5035508;28;20523;-66
2020/12/25 02:32:18;;;;;;;109.05;28.70;;;;;;;2.63;98.10;100141.41;5035146;28;20060;-65
2020/12/25 02:34:44;;;;;;;112.88;26.80;;;;;;;2.47;99.62;100159.47;5035614;28;20022;-65
2020/12/25 02:37:09;;;;;;;128.95;26.67;;;;;;;2.31;99.93;100131.75;5033542;28;20061;-66
2020/12/25 02:39:35;;;;;;;110.38;27.08;;;;;;;2.41;100.00;100152.84;5035341;28;20167;-65
2020/12/25 02:42:01;;;;;;;193.23;33.10;;;;;;;2.36;100.00;100139.28;5034987;28;20030;-66
2020/12/25 02:44:26;;;;;;;249.15;30.73;;;;;;;2.43;100.00;100137.22;5035207;28;20042;-65
2020/12/25 02:46:52;;;;;;;287.35;31.35;;;;;;;2.50;99.19;100141.19;5035152;28;20029;-65
2020/12/25 02:49:17;;;;;;;99.80;26.48;;;;;;;2.76;99.64;100173.50;5034685;28;20099;-65
2020/12/25 02:51:43;;;;;;;100.50;27.30;;;;;;;2.86;99.68;100186.81;5034648;28;20068;-65
2020/12/25 02:54:08;;;;;;;129.85;29.60;;;;;;;2.66;99.70;100156.75;5033259;28;20025;-65
2020/12/25 02:56:34;;;;;;;162.07;30.20;;;;;;;2.80;99.38;100175.00;5034659;28;20389;-66
2020/12/25 02:58:59;;;;;;;214.48;35.55;;;;;;;2.78;99.94;100177.69;5035053;28;20385;-66
2020/12/25 03:01:25;;;;;;;157.73;32.35;;;;;;;2.76;100.00;100170.91;5034607;28;20033;-66
2020/12/25 03:03:50;;;;;;;153.57;29.55;;;;;;;2.84;99.70;100177.38;5034630;28;20021;-66
2020/12/25 03:06:15;;;;;;;165.18;35.45;;;;;;;2.79;100.00;100169.00;5034441;28;20025;-65
2020/12/25 03:08:41;;;;;;;161.48;30.70;;;;;;;2.60;99.93;100156.19;5034410;28;20036;-65
2020/12/25 03:11:06;;;;;;;146.60;29.65;;;;;;;2.64;100.00;100163.78;5034346;28;20116;-66
2020/12/25 03:13:36;;;;;;;151.68;29.95;;;;;;;2.64;100.00;100148.25;5034222;28;20021;-66
2020/12/25 03:16:02;;;;;;;233.57;34.22;;;;;;;2.99;100.00;100180.91;5032860;28;20034;-66
2020/12/25 03:18:27;;;;;;;242.98;32.40;;;;;;;3.07;98.65;100180.50;5034410;28;20025;-66
2020/12/25 03:20:52;;;;;;;134.82;28.25;;;;;;;2.97;99.28;100164.66;5034001;28;20087;-66
2020/12/25 03:23:18;;;;;;;277.35;36.05;;;;;;;3.03;98.38;100166.91;5033998;28;20026;-66
2020/12/25 03:25:43;;;;;;;267.15;32.88;;;;;;;3.27;98.20;100207.97;5033873;28;20029;-65
2020/12/25 03:28:09;;;;;;;158.27;31.60;;;;;;;3.16;98.38;100186.97;5033945;28;20091;-65
2020/12/25 03:30:34;;;;;;;199.25;31.58;;;;;;;2.89;98.39;100166.78;5034277;28;20056;-66
2020/12/25 03:33:00;;;;;;;241.02;35.13;;;;;;;2.83;98.94;100160.19;5033681;28;20436;-66
2020/12/25 03:35:25;;;;;;;183.77;31.33;;;;;;;2.92;99.52;100202.88;5033638;28;20041;-66
2020/12/25 03:37:51;;;;;;;242.55;36.13;;;;;;;2.65;99.90;100162.88;5032501;28;20032;-66
2020/12/25 03:40:16;;;;;;;239.07;36.65;;;;;;;2.65;100.00;100153.34;5033557;28;20091;-66
2020/12/25 03:42:43;;;;;;;183.75;32.97;;;;;;;2.82;100.00;100178.38;5033880;28;20440;-66
2020/12/25 03:45:09;;;;;;;217.82;33.80;;;;;;;2.68;100.00;100171.31;5033676;28;20114;-66
2020/12/25 03:47:34;;;;;;;254.95;35.90;;;;;;;2.72;100.00;100164.22;5033468;28;20161;-66
2020/12/25 03:49:59;;;;;;;206.95;32.97;;;;;;;2.88;100.00;100178.06;5033488;28;20033;-66
2020/12/25 03:52:25;;;;;;;222.77;31.85;;;;;;;2.87;100.00;100170.34;5032197;28;20021;-66
2020/12/25 03:54:50;;;;;;;229.25;33.70;;;;;;;2.67;99.74;100148.09;5033189;28;20030;-66
2020/12/25 03:57:16;;;;;;;151.25;30.90;;;;;;;2.78;99.15;100151.81;5033207;28;20032;-66
2020/12/25 03:59:42;;;;;;;160.23;32.60;;;;;;;2.68;99.80;100160.97;5033366;28;20124;-66
2020/12/25 04:02:07;;;;;;;178.30;31.75;;;;;;;2.67;99.79;100159.28;5033765;28;20124;-66
2020/12/25 04:04:33;;;;;;;235.80;32.53;;;;;;;2.84;99.25;100199.84;5033435;28;20061;-66
2020/12/25 04:06:58;;;;;;;204.98;32.30;;;;;;;2.54;99.26;100160.81;5033717;28;20485;-65
2020/12/25 04:09:23;;;;;;;166.93;31.42;;;;;;;2.72;99.44;100175.41;5033355;28;20033;-66
2020/12/25 04:11:49;;;;;;;124.75;29.35;;;;;;;2.71;98.55;100159.97;5033348;28;20072;-66
2020/12/25 04:14:18;;;;;;;166.52;29.23;;;;;;;2.97;98.40;100198.31;5031895;28;20029;-66
2020/12/25 04:16:44;;;;;;;184.77;30.52;;;;;;;2.66;98.55;100161.94;5031985;28;20025;-65
2020/12/25 04:19:09;;;;;;;209.98;33.13;;;;;;;2.71;99.07;100185.84;5031867;28;20175;-65
2020/12/25 04:21:36;;;;;;;177.50;32.67;;;;;;;2.35;99.84;100150.56;5033224;28;20032;-65
2020/12/25 04:24:01;;;;;;;244.60;36.55;;;;;;;2.38;100.00;100168.50;5031624;28;20025;-67
2020/12/25 04:26:27;;;;;;;157.13;30.35;;;;;;;2.51;100.00;100173.91;5032993;28;20032;-66
2020/12/25 04:28:52;;;;;;;197.25;30.75;;;;;;;2.65;100.00;100163.69;5032821;28;20029;-66
2020/12/25 04:31:18;;;;;;;221.13;30.42;;;;;;;2.83;99.16;100174.84;5031580;28;20029;-66
2020/12/25 04:33:43;;;;;;;211.23;29.83;;;;;;;2.97;98.74;100200.03;5032692;28;20076;-66
2020/12/25 04:36:08;;;;;;;128.25;28.50;;;;;;;2.95;99.04;100202.72;5032600;28;20424;-67
2020/12/25 04:38:34;;;;;;;184.75;30.15;;;;;;;3.00;98.71;100198.16;5032759;28;20032;-66
2020/12/25 04:41:01;;;;;;;197.60;30.42;;;;;;;2.89;97.04;100168.53;5032432;28;20029;-66
2020/12/25 04:43:27;;;;;;;354.52;32.90;;;;;;;3.06;95.99;100186.63;5031483;28;20057;-65
2020/12/25 04:45:53;;;;;;;202.10;30.30;;;;;;;2.86;95.15;100147.97;5031481;28;20064;-66
2020/12/25 04:48:20;;;;;;;298.08;31.02;;;;;;;2.94;95.37;100156.22;5031461;28;20037;-65
2020/12/25 04:50:46;;;;;;;142.07;29.10;;;;;;;3.01;96.28;100186.88;5031385;28;20033;-66
2020/12/25 04:53:11;;;;;;;164.55;27.77;;;;;;;2.64;96.99;100150.84;5032349;28;20051;-66
2020/12/25 04:55:36;;;;;;;244.68;36.35;;;;;;;2.91;97.58;100179.66;5032575;28;20025;-66
2020/12/25 04:58:02;;;;;;;196.73;30.63;;;;;;;2.82;96.17;100183.53;5032601;28;20033;-66
2020/12/25 05:00:27;;;;;;;284.85;33.88;;;;;;;2.84;96.35;100186.91;5032573;28;20084;-66
2020/12/25 05:02:53;;;;;;;190.02;49.10;;;;;;;2.34;97.81;100120.44;5032373;28;20037;-65
2020/12/25 05:05:45;;;;;;;124.57;38.55;;;;;;;2.68;97.76;100178.25;5032445;28;20116;-65
2020/12/25 05:08:10;;;;;;;150.05;29.13;;;;;;;2.63;96.95;100167.28;5032106;28;20075;-65
2020/12/25 05:10:38;;;;;;;143.07;22.98;;;;;;;2.61;96.40;100180.28;5032921;28;20025;-66
2020/12/25 05:13:03;;;;;;;136.57;23.35;;;;;;;2.67;95.84;100195.53;5032543;28;20109;-66
2020/12/25 05:15:28;;;;;;;244.13;27.98;;;;;;;2.63;95.61;100200.91;5032347;28;20065;-66
2020/12/25 05:17:55;;;;;;;163.02;24.45;;;;;;;2.47;96.12;100193.94;5031208;28;20026;-65
2020/12/25 05:20:21;;;;;;;106.82;20.25;;;;;;;2.66;95.99;100199.00;5032203;28;20479;-66
2020/12/25 05:22:47;;;;;;;154.35;21.55;;;;;;;2.54;95.39;100197.88;5030756;28;20025;-66
2020/12/25 05:25:12;;;;;;;110.05;19.38;;;;;;;2.41;95.12;100168.34;5032133;28;20536;-65
2020/12/25 05:27:38;;;;;;;155.60;21.85;;;;;;;2.75;96.17;100201.13;5032110;28;20022;-66
2020/12/25 05:30:05;;;;;;;145.25;22.42;;;;;;;2.33;96.45;100168.75;5032204;28;20041;-65
2020/12/25 05:32:34;;;;;;;244.30;25.35;;;;;;;2.44;96.10;100190.66;5047090;28;20049;-65
2020/12/25 05:35:00;;;;;;;246.35;29.27;;;;;;;2.55;95.27;100188.38;5030845;28;20116;-66
2020/12/25 05:37:36;;;;;;;164.40;23.77;;;;;;;2.23;95.95;100164.06;5030729;28;20025;-65
2020/12/25 05:40:07;;;;;;;42.33;16.40;;;;;;;1.88;97.41;100180.38;5031933;28;20055;-65
2020/12/25 05:42:50;;;;;;;94.63;19.95;;;;;;;1.80;98.09;100197.16;5030836;28;20040;-66
2020/12/25 05:45:17;;;;;;;228.40;25.38;;;;;;;1.79;97.57;100165.31;5030481;28;20037;-66
2020/12/25 05:47:44;;;;;;;162.95;25.05;;;;;;;1.91;97.61;100197.50;5030563;28;20029;-66
2020/12/25 05:50:10;;;;;;;140.15;23.17;;;;;;;1.79;97.86;100182.56;5030759;28;20075;-65
2020/12/25 05:52:38;;;;;;;62.08;18.83;;;;;;;1.51;97.67;100194.16;5034641;28;20476;-65
2020/12/25 05:55:04;;;;;;;220.82;25.83;;;;;;;1.61;98.35;100197.16;5035542;28;20377;-65
2020/12/25 05:57:33;;;;;;;64.82;19.90;;;;;;;1.52;99.24;100213.94;5035509;28;20032;-66
2020/12/25 06:00:03;;;;;;;88.50;21.10;;;;;;;1.33;100.00;100215.66;5034280;28;20120;-66
2020/12/25 06:02:31;;;;;;;111.38;23.08;;;;;;;1.25;99.77;100197.06;5034232;28;20030;-67
2020/12/25 06:04:57;;;;;;;245.45;32.38;;;;;;;1.38;99.80;100187.88;5034483;28;20037;-66
2020/12/25 06:07:28;;;;;;;128.23;23.35;;;;;;;1.45;99.56;100171.19;5034463;28;20026;-66
2020/12/25 06:09:58;;;;;;;170.80;23.15;;;;;;;1.53;100.00;100215.59;5034430;28;20025;-65
2020/12/25 06:12:38;;;;;;;170.23;26.38;;;;;;;1.76;99.93;100219.72;5034318;28;20091;-66
2020/12/25 06:15:05;;;;;;;171.75;31.42;;;;;;;1.59;100.00;100186.91;5035879;28;20576;-66
2020/12/25 06:17:36;;;;;;;124.00;23.73;;;;;;;1.71;100.00;100213.91;5034280;28;20025;-66
2020/12/25 06:20:03;;;;;;;;;;;;;;;1.92;100.00;100225.00;5035053;28;20083;-66
2020/12/25 06:22:33;;;;;;;171.32;28.50;;;;;;;1.84;100.00;100220.19;5035326;28;19913;-66
2020/12/25 06:25:01;;;;;;;315.60;32.80;;;;;;;1.90;100.00;100221.69;5035594;28;20075;-66
2020/12/25 06:27:27;;;;;;;215.07;24.95;;;;;;;1.82;100.00;100185.00;5035345;28;20121;-66
2020/12/25 06:29:56;;;;;;;203.18;28.35;;;;;;;2.02;100.00;100218.50;5035286;28;20072;-65
2020/12/25 06:32:23;;;;;;;193.48;30.58;;;;;;;2.19;100.00;100240.13;5034984;28;20493;-66
2020/12/25 06:34:51;;;;;;;201.52;30.02;;;;;;;2.39;100.00;100247.75;5033806;28;20030;-66
2020/12/25 06:37:18;;;;;;;138.75;27.08;;;;;;;2.24;100.00;100201.97;5033709;28;20123;-66
2020/12/25 06:39:48;;;;;;;114.90;23.15;;;;;;;2.50;99.60;100239.50;5035293;28;20044;-66
2020/12/25 06:42:14;;;;;;;152.48;23.60;;;;;;;2.59;98.38;100239.03;5035460;28;20095;-65
2020/12/25 06:44:47;;;;;;;80.30;20.83;;;;;;;2.67;97.53;100228.34;5034900;28;20033;-66
2020/12/25 06:47:27;;;;;;;118.47;24.13;;;;;;;2.76;96.92;100230.44;5034892;28;20033;-66
2020/12/25 06:49:52;;;;;;;189.57;27.67;;;;;;;2.71;96.71;100209.97;5035277;28;20075;-66
2020/12/25 06:52:27;;;;;;;122.05;26.65;;;;;;;2.90;97.78;100233.16;5034526;28;20025;-66
2020/12/25 06:54:52;;;;;;;104.35;26.38;;;;;;;2.89;97.31;100234.09;5033476;28;20034;-66
2020/12/25 06:57:18;;;;;;;146.82;30.15;;;;;;;2.92;98.10;100230.50;5034777;28;20027;-66
2020/12/25 06:59:47;;;;;;;118.40;32.45;;;;;;;2.81;98.17;100212.94;5034905;28;20120;-66
2020/12/25 07:02:14;;;;;;;100.55;31.35;;;;;;;2.99;98.10;100237.88;5033998;28;20029;-66
2020/12/25 07:04:42;;;;;;;77.72;29.05;;;;;;;3.12;97.77;100234.69;5034550;28;20041;-66
2020/12/25 07:07:12;;;;;;;130.95;35.40;;;;;;;2.81;97.78;100215.53;5034765;28;20064;-66
2020/12/25 07:09:44;;;;;;;102.82;29.08;;;;;;;2.68;97.65;100194.59;5034259;28;20029;-66
2020/12/25 07:12:14;;;;;;;94.65;31.35;;;;;;;2.84;97.66;100190.31;5034492;28;20029;-66
2020/12/25 07:14:40;;;;;;;137.02;34.78;;;;;;;2.94;97.77;100182.94;5034466;28;20025;-66
2020/12/25 07:17:05;;;;;;;144.75;34.13;;;;;;;3.24;97.20;100206.41;5034171;28;20036;-66
2020/12/25 07:19:34;;;;;;;138.63;34.47;;;;;;;3.36;95.10;100211.84;5034335;28;20030;-66
2020/12/25 07:22:00;;;;;;;180.65;36.00;;;;;;;3.46;95.81;100218.19;5033145;28;20070;-66
2020/12/25 07:24:26;;;;;;;132.18;38.13;;;;;;;3.46;96.29;100211.25;5033538;28;20030;-67
2020/12/25 07:26:55;;;;;;;175.75;42.80;;;;;;;3.34;96.15;100190.34;5032287;28;20028;-67
2020/12/25 07:29:21;;;;;;;85.85;38.50;;;;;;;3.57;97.39;100207.25;5030988;28;20142;-69
2020/12/25 07:31:51;;;;;;;141.23;41.85;;;;;;;3.61;96.88;100213.94;5033037;28;20021;-66
2020/12/25 07:34:26;;;;;;;162.18;41.63;;;;;;;3.71;96.51;100222.91;5034586;28;20045;-65
2020/12/25 07:36:54;;;;;;;185.45;46.67;;;;;;;3.60;96.97;100220.88;5034067;28;20035;-65
2020/12/25 07:39:24;;;;;;;152.00;46.17;;;;;;;3.70;96.11;100223.81;5033505;28;20033;-66
2020/12/25 07:41:50;;;;;;;149.55;43.80;;;;;;;3.68;96.53;100217.88;5033002;28;20035;-63
2020/12/25 07:44:17;;;;;;;174.93;43.65;;;;;;;3.74;97.16;100227.91;5032397;28;20132;-66
2020/12/25 07:46:42;;;;;;;194.38;45.35;;;;;;;3.71;97.15;100215.13;5033030;28;20056;-66
2020/12/25 07:49:08;;;;;;;184.80;42.67;;;;;;;3.70;97.23;100213.44;5015967;28;20527;-66
2020/12/25 07:51:34;;;;;;;145.82;45.65;;;;;;;3.59;97.12;100184.69;5033135;28;20029;-66
2020/12/25 07:54:01;;;;;;;210.40;49.78;;;;;;;3.83;97.83;100229.19;5031010;28;20060;-68
2020/12/25 07:56:29;;;;;;;182.55;45.03;;;;;;;3.93;97.79;100231.19;5032011;28;20041;-66
2020/12/25 07:58:55;;;;;;;139.82;41.33;;;;;;;4.01;96.96;100239.38;5048265;28;20124;-65
2020/12/25 08:01:22;;;;;;;146.60;42.30;;;;;;;4.11;97.80;100238.88;5031538;28;20148;-66
2020/12/25 08:03:47;;;;;;;135.23;45.30;;;;;;;3.98;96.83;100202.41;5030823;28;20037;-66
2020/12/25 08:06:18;;;;;;;122.57;39.58;;;;;;;4.18;96.97;100230.66;5033018;28;20041;-66
2020/12/25 08:08:53;;;;;;;103.32;40.28;;;;;;;4.18;96.71;100224.63;5033421;28;20025;-67
2020/12/25 08:11:19;;;;;;;107.90;41.50;;;;;;;4.28;96.82;100224.97;5033392;28;20504;-65
2020/12/25 08:13:48;;;;;;;122.57;48.05;;;;;;;4.40;96.80;100235.47;5031461;28;20442;-65
2020/12/25 08:16:14;;;;;;;110.72;38.55;;;;;;;4.39;96.67;100227.81;5033124;28;20096;-65
2020/12/25 08:18:39;;;;;;;95.82;34.10;;;;;;;4.46;97.05;100235.13;5033230;28;20429;-66
2020/12/25 08:21:05;;;;;;;89.28;30.45;;;;;;;4.30;96.56;100226.53;5033167;28;20029;-65
2020/12/25 08:23:34;;;;;;;96.50;32.00;;;;;;;4.33;96.36;100233.31;5033002;28;20109;-65
2020/12/25 08:26:00;;;;;;;113.60;32.80;;;;;;;4.21;96.55;100219.28;5032836;28;20036;-65
2020/12/25 08:28:30;;;;;;;89.95;31.92;;;;;;;4.48;96.64;100233.28;5033193;28;20034;-66
2020/12/25 08:30:56;;;;;;;71.43;30.35;;;;;;;4.67;96.91;100242.63;5032865;28;20028;-66
2020/12/25 08:33:26;;;;;;;76.25;33.20;;;;;;;4.58;95.73;100214.59;5030741;28;20045;-66
2020/12/25 08:35:53;;;;;;;88.82;32.97;;;;;;;4.71;96.39;100244.09;5023694;28;20038;-66
2020/12/25 08:38:20;;;;;;;98.30;32.15;;;;;;;4.75;97.07;100245.59;5053390;28;20516;-67
2020/12/25 08:40:47;;;;;;;80.57;28.52;;;;;;;4.76;96.97;100223.91;5028109;28;20036;-67
2020/12/25 08:43:15;;;;;;;103.70;33.75;;;;;;;4.83;96.85;100239.97;5024128;28;20104;-67
2020/12/25 08:45:54;;;;;;;108.50;29.95;;;;;;;4.77;97.08;100240.31;5024990;28;20025;-66
2020/12/25 08:48:20;;;;;;;109.35;31.45;;;;;;;4.56;97.33;100221.66;5040619;28;20120;-66
2020/12/25 08:50:46;;;;;;;100.53;34.97;;;;;;;4.77;97.30;100233.38;5026465;28;20159;-68
2020/12/25 08:53:20;;;;;;;176.93;33.70;;;;;;;4.62;97.49;100206.53;5027487;28;20033;-66
2020/12/25 08:55:50;;;;;;;90.18;32.90;;;;;;;4.90;98.19;100236.94;5026656;28;20107;-65
2020/12/25 08:58:22;;;;;;;84.82;31.50;;;;;;;5.13;97.46;100225.19;5019955;28;20037;-65
2020/12/25 09:00:57;;;;;;;83.10;33.00;;;;;;;5.19;96.90;100237.78;5021909;28;20068;-66
2020/12/25 09:03:23;;;;;;;82.45;32.28;;;;;;;5.24;96.87;100226.28;5027294;28;20074;-67
2020/12/25 09:05:49;;;;;;;112.30;34.08;;;;;;;5.30;95.74;100226.75;5028272;28;20033;-65
2020/12/25 09:08:15;;;;;;;74.43;31.90;;;;;;;5.42;95.03;100218.19;5022284;28;20075;-67
2020/12/25 09:10:40;;;;;;;87.93;36.92;;;;;;;5.28;95.33;100201.78;5025048;28;20037;-66
2020/12/25 09:13:06;;;;;;;95.22;40.80;;;;;;;5.26;95.05;100181.06;5018937;28;20045;-67
2020/12/25 09:15:31;;;;;;;79.25;38.13;;;;;;;5.28;95.02;100200.00;5028595;28;20028;-66
2020/12/25 09:17:57;;;;;;;84.30;35.35;;;;;;;5.35;94.87;100223.88;5024167;28;20029;-66
2020/12/25 09:20:22;;;;;;;77.05;35.28;;;;;;;5.41;94.72;100218.31;5027900;28;20022;-66
2020/12/25 09:22:47;;;;;;;75.25;36.95;;;;;;;5.42;94.72;100222.56;5023755;28;20043;-66
2020/12/25 09:25:13;;;;;;;79.88;35.85;;;;;;;5.47;93.91;100217.94;5022261;28;20416;-66
2020/12/25 09:27:38;;;;;;;105.10;40.38;;;;;;;5.53;95.23;100221.91;5028923;28;20421;-67
2020/12/25 09:30:04;;;;;;;98.57;40.35;;;;;;;5.58;94.70;100202.50;5025784;28;20405;-67
2020/12/25 09:32:29;;;;;;;104.90;37.20;;;;;;;5.28;94.10;100158.44;5029388;28;20130;-67
2020/12/25 09:34:55;;;;;;;107.38;42.80;;;;;;;5.68;94.08;100206.19;5030389;28;20022;-66
2020/12/25 09:37:20;;;;;;;80.53;33.25;;;;;;;5.66;93.22;100189.00;5028549;28;20064;-65
2020/12/25 09:39:46;;;;;;;86.18;34.47;;;;;;;5.58;93.16;100167.88;5027509;28;20061;-65
2020/12/25 09:42:11;;;;;;;82.20;32.42;;;;;;;5.86;92.68;100192.97;5028697;28;20036;-66
2020/12/25 09:44:36;;;;;;;85.60;36.72;;;;;;;5.81;92.47;100163.81;5027194;28;20025;-66
2020/12/25 09:47:03;;;;;;;88.05;38.25;;;;;;;6.15;92.42;100184.16;5023259;28;20034;-66
2020/12/25 09:49:28;;;;;;;81.53;38.17;;;;;;;6.02;92.25;100156.44;5025013;28;20523;-67
2020/12/25 09:51:55;;;;;;;128.35;75.13;;;;;;;6.01;91.46;100147.81;5028317;28;20041;-66
2020/12/25 09:54:20;;;;;;;110.80;46.30;;;;;;;6.21;91.03;100171.66;5022964;28;20025;-69
2020/12/25 09:56:49;;;;;;;113.75;40.28;;;;;;;6.33;89.37;100169.09;5028940;28;20030;-66
2020/12/25 09:59:14;;;;;;;91.18;46.70;;;;;;;6.14;89.10;100132.19;5023563;28;20124;-65
2020/12/25 10:01:40;;;;;;;99.72;47.03;;;;;;;6.18;89.94;100175.34;5027574;28;20533;-66
2020/12/25 10:04:05;;;;;;;116.38;37.38;;;;;;;5.74;90.75;100137.38;5021774;28;20040;-66
2020/12/25 10:06:31;;;;;;;103.63;49.60;;;;;;;5.54;92.77;100114.41;5031622;28;20029;-68
2020/12/25 10:08:56;;;;;;;103.63;39.88;;;;;;;5.37;93.95;100121.50;5027281;28;20032;-68
2020/12/25 10:11:22;;;;;;;94.32;41.22;;;;;;;5.73;94.64;100150.47;5027672;28;20143;-67
2020/12/25 10:13:47;;;;;;;107.00;42.95;;;;;;;5.77;93.75;100129.38;5031059;28;20104;-67
2020/12/25 10:16:13;;;;;;;94.05;41.28;;;;;;;6.02;93.48;100146.03;5023225;28;20033;-68
2020/12/25 10:18:38;;;;;;;92.90;38.83;;;;;;;5.95;91.87;100123.94;5028519;28;20025;-67
2020/12/25 10:21:04;;;;;;;83.68;39.65;;;;;;;5.99;92.18;100123.66;5028806;28;20037;-68
2020/12/25 10:23:29;;;;;;;73.35;31.40;;;;;;;6.18;92.72;100141.50;5026992;28;20041;-67
2020/12/25 10:25:55;;;;;;;72.07;33.13;;;;;;;6.10;91.99;100122.94;5028751;28;20401;-67
2020/12/25 10:28:20;;;;;;;50.42;28.83;;;;;;;6.12;91.77;100134.09;5026797;28;20444;-66
2020/12/25 10:30:47;;;;;;;40.58;24.48;;;;;;;6.11;90.96;100124.63;5029705;28;20053;-68
2020/12/25 10:33:12;;;;;;;48.22;28.25;;;;;;;6.10;92.92;100122.94;5028014;28;20057;-67
2020/12/25 10:35:38;;;;;;;63.50;37.28;;;;;;;6.23;92.29;100113.38;5030640;28;20059;-67
2020/12/25 10:38:04;;;;;;;51.50;34.65;;;;;;;6.19;91.88;100091.13;5028482;28;20389;-67
2020/12/25 10:40:29;;;;;;;46.28;28.70;;;;;;;5.93;92.37;100072.00;5030630;28;20057;-68
2020/12/25 10:42:55;;;;;;;52.70;29.60;;;;;;;5.81;94.56;100101.41;5023535;28;20112;-66
2020/12/25 10:45:20;;;;;;;53.33;28.98;;;;;;;5.82;95.64;100096.09;5030563;28;20443;-69
2020/12/25 10:47:46;;;;;;;51.63;27.67;;;;;;;5.86;95.07;100063.75;5043416;28;20034;-68
2020/12/25 10:50:11;;;;;;;46.80;31.05;;;;;;;6.25;94.41;100084.69;5031076;28;20484;-69
2020/12/25 10:52:36;;;;;;;50.30;25.00;;;;;;;6.36;93.95;100093.41;5022317;28;20503;-67
2020/12/25 10:55:02;;;;;;;46.63;26.05;;;;;;;6.38;93.61;100062.94;5028099;28;20512;-67
2020/12/25 10:57:28;;;;;;;46.20;27.33;;;;;;;6.60;92.04;100064.06;5026212;28;20076;-66
2020/12/25 10:59:53;;;;;;;49.33;27.92;;;;;;;6.66;91.79;100063.63;5029950;28;20036;-65
2020/12/25 11:02:18;;;;;;;55.63;30.33;;;;;;;6.74;91.85;100058.72;5024205;28;20104;-68
2020/12/25 11:04:44;;;;;;;48.42;29.42;;;;;;;6.96;92.03;100084.13;5027212;28;20030;-66
2020/12/25 11:07:09;;;;;;;50.60;28.60;;;;;;;6.89;93.02;100069.88;5017642;28;20026;-67
2020/12/25 11:09:35;;;;;;;47.17;27.30;;;;;;;7.05;93.31;100074.81;5021373;28;20041;-68